Time;durP1;ratioP1;P1;durP2;ratioP2;P2;SDS_P1;SDS_P2;PMS_P1;PMS_P2;Temp;Humidity;BMP_temperature;BMP_pressure;BME280_temperature;BME280_humidity;BME280_pressure;Samples;Min_cycle;Max_cycle;Signal;HPM_P1;HPM_P2
2023/10/05 00:01:44;;;;;;;2.08;1.20;;;;;;;;;;5058674;28;20029;-79
2023/10/05 00:04:15;;;;;;;1.65;1.27;;;;;;;;;;5063363;28;20024;-78
2023/10/05 00:06:42;;;;;;;1.35;1.10;;;;;;;;;;5064872;28;20049;-78
2023/10/05 00:09:17;;;;;;;1.33;1.23;;;;;;;;;;5067622;28;20028;-77
2023/10/05 00:11:43;;;;;;;1.52;1.00;;;;;;;;;;5050227;28;20032;-78
2023/10/05 00:14:12;;;;;;;1.17;0.90;;;;;;;;;;5046564;28;20108;-78
2023/10/05 00:16:44;;;;;;;1.70;1.38;;;;;;;;;;5042095;28;20036;-78
2023/10/05 00:19:11;;;;;;;1.58;1.13;;;;;;;;;;5049812;28;20036;-78
2023/10/05 00:21:56;;;;;;;1.40;1.10;;;;;;;;;;5050106;28;20041;-78
2023/10/05 00:24:29;;;;;;;1.10;1.00;;;;;;;;;;5048829;28;20050;-78
2023/10/05 00:26:56;;;;;;;1.70;1.08;;;;;;;;;;5042336;28;20175;-77
2023/10/05 00:29:35;;;;;;;1.25;0.90;;;;;;;;;;5035444;28;20029;-78
2023/10/05 00:32:01;;;;;;;1.25;1.10;;;;;;;;;;5036599;28;20029;-78
2023/10/05 00:34:28;;;;;;;1.58;1.10;;;;;;;;;;5035737;28;20029;-78
2023/10/05 00:36:59;;;;;;;2.42;1.35;;;;;;;;;;5037711;28;20059;-79
2023/10/05 00:39:25;;;;;;;1.40;1.10;;;;;;;;;;5038115;28;20040;-78
2023/10/05 00:44:31;;;;;;;2.03;0.80;;;;;;;;;;5042446;28;20036;-78
2023/10/05 00:47:00;;;;;;;1.23;1.00;;;;;;;;;;5051292;28;20029;-78
2023/10/05 00:49:30;;;;;;;1.33;0.60;;;;;;;;;;5044307;28;20029;-79
2023/10/05 00:52:13;;;;;;;1.48;1.02;;;;;;;;;;5053409;28;20037;-79
2023/10/05 00:54:40;;;;;;;1.60;1.10;;;;;;;;;;5060909;28;20017;-79
2023/10/05 00:57:14;;;;;;;1.88;1.15;;;;;;;;;;5060600;28;20025;-79
2023/10/05 00:59:40;;;;;;;1.23;1.13;;;;;;;;;;5060628;28;20418;-79
2023/10/05 01:02:16;;;;;;;1.52;1.05;;;;;;;;;;5050309;28;20033;-79
2023/10/05 01:07:18;;;;;;;1.90;1.23;;;;;;;;;;5039422;28;20049;-78
2023/10/05 01:12:21;;;;;;;1.48;1.05;;;;;;;;;;5058286;28;20032;-78
2023/10/05 01:14:53;;;;;;;1.27;1.17;;;;;;;;;;5060591;28;20084;-79
2023/10/05 01:17:21;;;;;;;1.05;0.95;;;;;;;;;;5060531;28;20025;-78
2023/10/05 01:19:54;;;;;;;1.52;1.27;;;;;;;;;;5062213;28;20033;-79
2023/10/05 01:22:22;;;;;;;1.30;1.20;;;;;;;;;;5059594;28;20068;-78
2023/10/05 01:24:51;;;;;;;1.00;0.90;;;;;;;;;;5059783;28;20031;-79
2023/10/05 01:27:19;;;;;;;2.08;1.20;;;;;;;;;;5058682;28;20100;-79
2023/10/05 01:29:45;;;;;;;1.67;1.15;;;;;;;;;;5058520;28;20017;-79
2023/10/05 01:32:11;;;;;;;1.13;1.00;;;;;;;;;;5041926;28;20030;-79
2023/10/05 01:34:37;;;;;;;1.13;0.80;;;;;;;;;;5043686;28;20034;-79
2023/10/05 01:37:04;;;;;;;0.93;0.73;;;;;;;;;;5041201;28;20044;-78
2023/10/05 01:39:35;;;;;;;1.23;0.70;;;;;;;;;;5038946;28;20025;-79
2023/10/05 01:42:05;;;;;;;1.23;0.77;;;;;;;;;;5040861;28;20034;-78
2023/10/05 01:44:35;;;;;;;0.88;0.73;;;;;;;;;;5040453;28;20021;-79
2023/10/05 01:47:01;;;;;;;1.05;0.73;;;;;;;;;;5040083;28;20056;-78
2023/10/05 01:49:27;;;;;;;0.80;0.80;;;;;;;;;;5037437;28;20052;-77
2023/10/05 01:51:54;;;;;;;1.23;1.13;;;;;;;;;;5052922;28;20044;-77
2023/10/05 01:54:24;;;;;;;0.93;0.88;;;;;;;;;;5058353;28;20028;-77
2023/10/05 01:56:51;;;;;;;1.45;1.08;;;;;;;;;;5060028;28;20036;-79
2023/10/05 01:59:20;;;;;;;1.63;1.25;;;;;;;;;;5061487;28;20029;-77
2023/10/05 02:01:47;;;;;;;1.20;0.80;;;;;;;;;;5054830;28;20032;-77
2023/10/05 02:04:15;;;;;;;2.13;1.35;;;;;;;;;;5043591;28;20041;-78
2023/10/05 02:06:42;;;;;;;2.33;1.20;;;;;;;;;;5041554;28;20032;-78
2023/10/05 02:09:14;;;;;;;1.30;1.05;;;;;;;;;;5039146;28;20507;-78
2023/10/05 02:11:43;;;;;;;1.67;1.02;;;;;;;;;;5041311;28;20041;-78
2023/10/05 02:14:12;;;;;;;1.67;0.82;;;;;;;;;;5041108;28;20075;-78
2023/10/05 02:16:38;;;;;;;1.42;0.70;;;;;;;;;;5041285;28;20029;-78
2023/10/05 02:19:08;;;;;;;0.93;0.75;;;;;;;;;;5041804;28;20029;-79
2023/10/05 02:21:37;;;;;;;1.42;0.85;;;;;;;;;;5039764;28;20040;-79
2023/10/05 02:24:16;;;;;;;2.35;0.85;;;;;;;;;;5040426;28;20109;-79
2023/10/05 02:27:13;;;;;;;1.13;0.90;;;;;;;;;;5041032;28;20029;-79
2023/10/05 02:29:43;;;;;;;0.90;0.68;;;;;;;;;;5041258;28;20030;-79
2023/10/05 02:32:21;;;;;;;0.80;0.80;;;;;;;;;;5040373;28;20167;-78
2023/10/05 02:35:00;;;;;;;0.65;0.60;;;;;;;;;;5036576;28;20028;-78
2023/10/05 02:37:32;;;;;;;0.80;0.80;;;;;;;;;;5037495;28;20557;-79
2023/10/05 02:39:58;;;;;;;;;;;;;;;;;;5037540;28;20507;-79
2023/10/05 02:42:25;;;;;;;1.40;1.17;;;;;;;;;;5035999;28;20185;-77
2023/10/05 02:44:53;;;;;;;1.58;0.98;;;;;;;;;;5035408;28;20029;-78
2023/10/05 02:47:23;;;;;;;0.85;0.82;;;;;;;;;;5033491;28;20026;-78
2023/10/05 02:49:49;;;;;;;1.20;0.93;;;;;;;;;;5035595;28;20026;-78
2023/10/05 02:52:16;;;;;;;1.38;1.00;;;;;;;;;;5038117;28;20440;-79
2023/10/05 02:54:49;;;;;;;0.60;0.60;;;;;;;;;;5038907;28;20542;-78
2023/10/05 02:57:16;;;;;;;1.27;0.98;;;;;;;;;;5039293;28;20025;-78
2023/10/05 02:59:43;;;;;;;1.20;0.85;;;;;;;;;;5038003;28;20025;-80
2023/10/05 03:02:14;;;;;;;1.55;1.05;;;;;;;;;;5037135;28;20175;-77
2023/10/05 03:04:56;;;;;;;1.45;1.10;;;;;;;;;;5045426;28;20033;-78
2023/10/05 03:07:25;;;;;;;1.20;1.02;;;;;;;;;;5022572;28;20045;-79
2023/10/05 03:09:52;;;;;;;1.70;0.75;;;;;;;;;;5017476;28;20026;-78
2023/10/05 03:12:20;;;;;;;1.30;1.05;;;;;;;;;;5017824;28;20022;-78
2023/10/05 03:14:47;;;;;;;0.93;0.50;;;;;;;;;;5044306;28;20032;-78
2023/10/05 03:17:15;;;;;;;0.98;0.88;;;;;;;;;;5057667;28;20035;-78
2023/10/05 03:19:41;;;;;;;2.03;1.08;;;;;;;;;;5053776;28;20021;-77
2023/10/05 03:22:12;;;;;;;1.08;0.82;;;;;;;;;;5055795;28;20053;-77
2023/10/05 03:24:38;;;;;;;1.10;0.80;;;;;;;;;;5056113;28;20498;-78
2023/10/05 03:27:05;;;;;;;0.70;0.70;;;;;;;;;;5056875;28;20048;-78
2023/10/05 03:29:35;;;;;;;1.10;1.00;;;;;;;;;;5057287;28;20036;-77
2023/10/05 03:34:34;;;;;;;1.17;0.70;;;;;;;;;;5064695;28;20056;-76
2023/10/05 03:37:12;;;;;;;1.40;1.13;;;;;;;;;;5050177;28;20056;-76
2023/10/05 03:42:16;;;;;;;1.42;0.85;;;;;;;;;;5049375;28;20026;-77
2023/10/05 03:44:42;;;;;;;0.85;0.77;;;;;;;;;;5043414;28;20075;-78
2023/10/05 03:47:08;;;;;;;1.52;1.00;;;;;;;;;;5042280;28;20057;-79
2023/10/05 03:49:36;;;;;;;1.55;0.88;;;;;;;;;;5041928;28;20052;-78
2023/10/05 03:52:06;;;;;;;1.20;1.05;;;;;;;;;;5039934;28;20037;-78
2023/10/05 03:54:33;;;;;;;1.25;1.13;;;;;;;;;;5040905;28;20098;-78
2023/10/05 03:57:11;;;;;;;2.08;1.33;;;;;;;;;;5060370;28;20025;-77
2023/10/05 03:59:37;;;;;;;1.27;1.15;;;;;;;;;;5059032;28;20602;-78
2023/10/05 04:02:06;;;;;;;0.80;0.77;;;;;;;;;;5060286;28;20117;-77
2023/10/05 04:04:35;;;;;;;1.88;1.20;;;;;;;;;;5061897;28;20029;-78
2023/10/05 04:07:02;;;;;;;1.48;1.15;;;;;;;;;;5060003;28;20058;-79
2023/10/05 04:09:28;;;;;;;1.35;1.10;;;;;;;;;;5061070;28;20092;-79
2023/10/05 04:11:55;;;;;;;1.35;1.02;;;;;;;;;;5062628;28;20044;-78
2023/10/05 04:14:22;;;;;;;2.10;1.30;;;;;;;;;;5061012;28;20084;-78
2023/10/05 04:16:49;;;;;;;1.33;1.08;;;;;;;;;;5062478;28;20070;-77
2023/10/05 04:19:17;;;;;;;1.85;1.17;;;;;;;;;;5060972;28;20115;-78
2023/10/05 04:21:44;;;;;;;1.63;0.90;;;;;;;;;;5060642;28;20032;-77
2023/10/05 04:24:14;;;;;;;1.65;1.02;;;;;;;;;;5060858;28;20033;-77
2023/10/05 04:26:44;;;;;;;1.02;0.80;;;;;;;;;;5044919;28;20028;-78
2023/10/05 04:29:10;;;;;;;1.48;0.90;;;;;;;;;;5047885;28;20097;-77
2023/10/05 04:31:37;;;;;;;0.98;0.93;;;;;;;;;;5040823;28;20028;-78
2023/10/05 04:34:11;;;;;;;1.38;1.15;;;;;;;;;;5038893;28;20242;-78
2023/10/05 04:36:38;;;;;;;1.15;1.05;;;;;;;;;;5061868;28;20056;-77
2023/10/05 04:39:06;;;;;;;1.23;1.05;;;;;;;;;;5067900;28;20173;-78
2023/10/05 04:41:39;;;;;;;1.30;1.10;;;;;;;;;;5064465;28;20055;-79
2023/10/05 04:44:11;;;;;;;1.13;0.95;;;;;;;;;;5062998;28;20052;-78
2023/10/05 04:46:37;;;;;;;1.05;0.80;;;;;;;;;;5047789;28;20058;-78
2023/10/05 04:49:08;;;;;;;1.88;1.48;;;;;;;;;;5047476;28;20021;-78
2023/10/05 04:51:38;;;;;;;1.83;0.90;;;;;;;;;;5044981;28;20032;-79
2023/10/05 04:54:06;;;;;;;1.35;0.95;;;;;;;;;;5041865;28;20014;-77
2023/10/05 04:56:40;;;;;;;1.25;1.15;;;;;;;;;;5039747;28;20033;-78
2023/10/05 05:01:56;;;;;;;2.35;1.48;;;;;;;;;;5041492;28;20038;-80
2023/10/05 05:06:59;;;;;;;1.92;1.55;;;;;;;;;;5039615;28;20050;-77
2023/10/05 05:09:35;;;;;;;1.30;1.10;;;;;;;;;;5038714;28;20033;-78
2023/10/05 05:12:04;;;;;;;1.55;1.00;;;;;;;;;;5038266;28;20025;-78
2023/10/05 05:14:43;;;;;;;1.63;1.40;;;;;;;;;;5038942;28;20075;-79
2023/10/05 05:17:14;;;;;;;1.30;1.00;;;;;;;;;;5039541;28;20044;-78
2023/10/05 05:19:40;;;;;;;1.40;1.30;;;;;;;;;;5042608;28;20025;-79
2023/10/05 05:22:07;;;;;;;1.55;1.45;;;;;;;;;;5039366;28;20476;-79
2023/10/05 05:24:33;;;;;;;1.10;1.00;;;;;;;;;;5040470;28;20473;-79
2023/10/05 05:27:03;;;;;;;1.00;0.90;;;;;;;;;;5037384;28;20176;-78
2023/10/05 05:29:30;;;;;;;1.80;1.10;;;;;;;;;;5040612;28;20018;-78
2023/10/05 05:31:56;;;;;;;1.73;1.20;;;;;;;;;;5041016;28;20572;-79
2023/10/05 05:34:26;;;;;;;1.38;1.00;;;;;;;;;;5040626;28;20018;-79
2023/10/05 05:36:55;;;;;;;1.20;0.90;;;;;;;;;;5046293;28;20029;-79
2023/10/05 05:39:23;;;;;;;1.48;0.93;;;;;;;;;;5061676;28;20079;-79
2023/10/05 05:41:59;;;;;;;0.73;0.73;;;;;;;;;;5062803;28;20021;-79
2023/10/05 05:44:26;;;;;;;1.27;1.10;;;;;;;;;;5062975;28;20079;-79
2023/10/05 05:46:55;;;;;;;2.28;1.20;;;;;;;;;;5063581;28;20029;-79
2023/10/05 05:49:22;;;;;;;0.95;0.80;;;;;;;;;;5063647;28;20051;-77
2023/10/05 05:51:48;;;;;;;1.10;0.88;;;;;;;;;;5062108;28;20360;-78
2023/10/05 05:54:14;;;;;;;1.25;0.90;;;;;;;;;;5061200;28;20028;-78
2023/10/05 05:56:42;;;;;;;0.73;0.70;;;;;;;;;;5063820;28;20037;-78
2023/10/05 05:59:09;;;;;;;0.85;0.73;;;;;;;;;;5069360;28;20024;-78
2023/10/05 06:01:35;;;;;;;1.20;0.90;;;;;;;;;;5067710;28;20028;-78
2023/10/05 06:04:03;;;;;;;0.95;0.73;;;;;;;;;;5065735;28;20084;-78
2023/10/05 06:06:29;;;;;;;1.52;0.85;;;;;;;;;;5067107;28;20047;-77
2023/10/05 06:08:56;;;;;;;1.73;1.25;;;;;;;;;;5051104;28;20285;-77
2023/10/05 06:11:23;;;;;;;1.52;1.23;;;;;;;;;;5050788;28;20025;-78
2023/10/05 06:13:49;;;;;;;1.30;1.20;;;;;;;;;;5049642;28;20029;-78
2023/10/05 06:16:15;;;;;;;3.65;1.67;;;;;;;;;;5047956;28;20044;-78
2023/10/05 06:18:43;;;;;;;3.35;1.83;;;;;;;;;;5048789;28;20074;-78
2023/10/05 06:21:09;;;;;;;4.80;2.88;;;;;;;;;;5048990;28;20055;-79
2023/10/05 06:23:35;;;;;;;4.38;2.53;;;;;;;;;;5045480;28;20052;-80
2023/10/05 06:26:02;;;;;;;4.18;2.15;;;;;;;;;;5039883;28;20039;-79
2023/10/05 06:28:28;;;;;;;3.80;2.15;;;;;;;;;;5037969;28;20032;-80
2023/10/05 06:30:56;;;;;;;2.45;1.80;;;;;;;;;;5039298;28;20032;-79
2023/10/05 06:33:23;;;;;;;3.47;1.83;;;;;;;;;;5039874;28;20403;-78
2023/10/05 06:35:49;;;;;;;2.03;1.35;;;;;;;;;;5039940;28;20032;-79
2023/10/05 06:38:18;;;;;;;4.97;1.98;;;;;;;;;;5037915;28;20095;-78
2023/10/05 06:40:45;;;;;;;3.38;1.77;;;;;;;;;;5037724;28;20372;-78
2023/10/05 06:43:11;;;;;;;1.90;1.58;;;;;;;;;;5037509;28;20026;-79
2023/10/05 06:45:37;;;;;;;3.03;1.70;;;;;;;;;;5038622;28;20105;-78
2023/10/05 06:48:04;;;;;;;3.05;1.80;;;;;;;;;;5037798;28;20093;-79
2023/10/05 06:50:30;;;;;;;2.55;1.50;;;;;;;;;;5039137;28;20463;-79
2023/10/05 06:52:56;;;;;;;1.23;1.05;;;;;;;;;;5038495;28;20051;-78
2023/10/05 06:55:23;;;;;;;1.85;1.40;;;;;;;;;;5038061;28;20091;-79
2023/10/05 06:57:53;;;;;;;2.05;1.55;;;;;;;;;;5036035;28;20345;-79
2023/10/05 07:00:20;;;;;;;1.85;1.50;;;;;;;;;;5037084;28;20030;-80
2023/10/05 07:02:47;;;;;;;1.58;1.45;;;;;;;;;;5038100;28;20033;-79
2023/10/05 07:05:13;;;;;;;2.75;1.48;;;;;;;;;;5039616;28;20025;-79
2023/10/05 07:07:43;;;;;;;2.38;1.38;;;;;;;;;;5037318;28;20476;-78
2023/10/05 07:10:14;;;;;;;1.95;1.60;;;;;;;;;;5047162;28;20408;-79
2023/10/05 07:12:46;;;;;;;1.95;1.55;;;;;;;;;;5061546;28;20025;-79
2023/10/05 07:15:13;;;;;;;2.00;1.60;;;;;;;;;;5061380;28;20100;-80
2023/10/05 07:17:40;;;;;;;2.55;1.60;;;;;;;;;;5060725;28;20056;-78
2023/10/05 07:20:12;;;;;;;2.80;1.65;;;;;;;;;;5041405;28;20449;-79
2023/10/05 07:22:39;;;;;;;2.83;1.90;;;;;;;;;;5040649;28;20542;-79
2023/10/05 07:25:05;;;;;;;2.05;1.40;;;;;;;;;;5041209;28;20025;-79
2023/10/05 07:27:31;;;;;;;2.28;1.42;;;;;;;;;;5039590;28;20032;-80
2023/10/05 07:29:57;;;;;;;2.08;1.73;;;;;;;;;;5042427;28;20033;-80
2023/10/05 07:32:24;;;;;;;2.08;1.67;;;;;;;;;;5042178;28;20025;-78
2023/10/05 07:34:50;;;;;;;1.50;1.40;;;;;;;;;;5042592;28;20113;-79
2023/10/05 07:37:16;;;;;;;1.95;1.65;;;;;;;;;;5040100;28;20129;-79
2023/10/05 07:39:43;;;;;;;5.05;2.10;;;;;;;;;;5040250;28;20037;-79
2023/10/05 07:42:09;;;;;;;3.15;2.15;;;;;;;;;;5040559;28;20025;-79
2023/10/05 07:44:43;;;;;;;2.92;2.08;;;;;;;;;;5041129;28;20033;-79
2023/10/05 07:47:11;;;;;;;3.47;2.30;;;;;;;;;;5040894;28;20021;-79
2023/10/05 07:49:38;;;;;;;2.45;1.88;;;;;;;;;;5040311;28;20107;-77
2023/10/05 07:52:07;;;;;;;2.88;1.60;;;;;;;;;;5039069;28;20128;-79
2023/10/05 07:54:34;;;;;;;4.30;2.17;;;;;;;;;;5039930;28;20484;-78
2023/10/05 07:57:01;;;;;;;2.92;1.73;;;;;;;;;;5041840;28;20372;-80
2023/10/05 07:59:28;;;;;;;2.17;1.73;;;;;;;;;;5042206;28;20040;-78
2023/10/05 08:01:55;;;;;;;3.03;2.25;;;;;;;;;;5060321;28;20049;-78
2023/10/05 08:04:22;;;;;;;2.65;1.80;;;;;;;;;;5060190;28;20103;-78
2023/10/05 08:06:48;;;;;;;2.47;1.75;;;;;;;;;;5059366;28;20029;-79
2023/10/05 08:09:15;;;;;;;3.72;1.98;;;;;;;;;;5057692;28;20052;-78
2023/10/05 08:11:44;;;;;;;3.90;2.90;;;;;;;;;;5041175;28;20017;-78
2023/10/05 08:14:11;;;;;;;4.90;2.60;;;;;;;;;;5039479;28;20018;-78
2023/10/05 08:16:38;;;;;;;2.80;1.98;;;;;;;;;;5039335;28;20021;-78
2023/10/05 08:19:05;;;;;;;3.42;2.38;;;;;;;;;;5041016;28;20053;-79
2023/10/05 08:21:31;;;;;;;4.45;2.13;;;;;;;;;;5040643;28;20057;-78
2023/10/05 08:23:57;;;;;;;3.58;2.53;;;;;;;;;;5039333;28;20034;-79
2023/10/05 08:26:28;;;;;;;6.70;2.92;;;;;;;;;;5043976;28;20030;-78
2023/10/05 08:28:55;;;;;;;6.22;2.75;;;;;;;;;;5046020;28;20088;-78
2023/10/05 08:31:23;;;;;;;4.93;2.40;;;;;;;;;;5050262;28;20523;-78
2023/10/05 08:33:55;;;;;;;5.35;2.42;;;;;;;;;;5047801;28;20416;-79
2023/10/05 08:36:22;;;;;;;5.10;2.85;;;;;;;;;;5041857;28;20034;-79
2023/10/05 08:38:48;;;;;;;5.40;2.97;;;;;;;;;;5038532;28;20183;-78
2023/10/05 08:41:26;;;;;;;8.77;2.65;;;;;;;;;;5045858;28;20028;-78
2023/10/05 08:43:54;;;;;;;3.92;2.90;;;;;;;;;;5059704;28;20028;-78
2023/10/05 08:46:20;;;;;;;4.60;2.70;;;;;;;;;;5059773;28;20108;-78
2023/10/05 08:48:46;;;;;;;6.13;2.20;;;;;;;;;;5060954;28;20017;-78
2023/10/05 08:51:14;;;;;;;3.58;2.58;;;;;;;;;;5057603;28;20081;-79
2023/10/05 08:53:48;;;;;;;4.47;2.40;;;;;;;;;;5042588;28;20014;-79
2023/10/05 08:56:15;;;;;;;3.60;2.58;;;;;;;;;;5041867;28;20045;-79
2023/10/05 08:58:48;;;;;;;2.75;2.00;;;;;;;;;;5043648;28;20056;-79
2023/10/05 09:01:35;;;;;;;3.22;2.03;;;;;;;;;;5042958;28;20029;-79
2023/10/05 09:06:44;;;;;;;3.75;2.28;;;;;;;;;;5048849;28;20044;-77
2023/10/05 09:09:14;;;;;;;3.00;2.28;;;;;;;;;;5047728;28;20071;-77
2023/10/05 09:11:40;;;;;;;2.63;2.05;;;;;;;;;;5042736;28;20028;-79
2023/10/05 09:14:27;;;;;;;2.45;1.83;;;;;;;;;;5046409;28;20029;-78
2023/10/05 09:17:03;;;;;;;2.65;1.70;;;;;;;;;;5045683;28;20032;-77
2023/10/05 09:19:29;;;;;;;3.88;2.25;;;;;;;;;;5039667;28;20033;-79
2023/10/05 09:24:26;;;;;;;4.70;2.33;;;;;;;;;;5037934;28;20435;-77
2023/10/05 09:26:56;;;;;;;3.17;1.92;;;;;;;;;;5039173;28;20025;-79
2023/10/05 09:29:23;;;;;;;4.07;2.10;;;;;;;;;;5039025;28;20026;-79
2023/10/05 09:31:54;;;;;;;4.55;2.38;;;;;;;;;;5053043;28;20025;-79
2023/10/05 09:34:35;;;;;;;5.20;2.55;;;;;;;;;;5060410;28;20075;-79
2023/10/05 09:37:06;;;;;;;3.80;2.63;;;;;;;;;;5060186;28;20060;-79
2023/10/05 09:39:42;;;;;;;3.70;2.47;;;;;;;;;;5059880;28;20036;-79
2023/10/05 09:42:09;;;;;;;4.70;2.55;;;;;;;;;;5047062;28;20216;-80
2023/10/05 09:44:37;;;;;;;3.47;2.25;;;;;;;;;;5039366;28;20410;-79
2023/10/05 09:47:03;;;;;;;4.22;1.98;;;;;;;;;;5037469;28;20175;-78
2023/10/05 09:49:30;;;;;;;4.18;2.50;;;;;;;;;;5038864;28;20036;-78
2023/10/05 09:51:57;;;;;;;8.77;4.00;;;;;;;;;;5037495;28;20029;-80
2023/10/05 09:54:27;;;;;;;5.28;2.50;;;;;;;;;;5039257;28;20096;-80
2023/10/05 09:56:53;;;;;;;3.97;2.35;;;;;;;;;;5036897;28;20021;-78
2023/10/05 09:59:21;;;;;;;2.58;2.13;;;;;;;;;;5038293;28;20416;-79
2023/10/05 10:01:49;;;;;;;3.58;2.38;;;;;;;;;;5037550;28;20025;-78
2023/10/05 10:04:34;;;;;;;3.58;1.77;;;;;;;;;;5045475;28;20043;-79
2023/10/05 10:07:03;;;;;;;5.88;3.03;;;;;;;;;;5057620;28;20044;-78
2023/10/05 10:09:29;;;;;;;6.22;3.00;;;;;;;;;;5059340;28;20044;-80
2023/10/05 10:12:01;;;;;;;3.08;2.38;;;;;;;;;;5065639;22;20384;-77
2023/10/05 10:14:29;;;;;;;4.70;3.00;;;;;;;;;;5022134;28;20045;-75
2023/10/05 10:17:00;;;;;;;2.05;1.65;;;;;;;;;;5014634;28;20116;-75
2023/10/05 10:19:28;;;;;;;3.55;2.70;;;;;;;;;;5014140;28;20062;-75
2023/10/05 10:22:07;;;;;;;3.53;2.05;;;;;;;;;;5013245;28;20022;-76
2023/10/05 10:24:34;;;;;;;2.58;1.98;;;;;;;;;;4993949;28;20037;-76
2023/10/05 10:27:07;;;;;;;3.50;2.08;;;;;;;;;;4993585;28;20034;-76
2023/10/05 10:29:45;;;;;;;4.70;2.55;;;;;;;;;;4993637;28;20026;-76
2023/10/05 10:32:18;;;;;;;4.68;2.20;;;;;;;;;;4993626;28;20026;-77
2023/10/05 10:34:50;;;;;;;2.90;2.00;;;;;;;;;;5032217;28;20096;-76
2023/10/05 10:37:17;;;;;;;;;;;;;;;;;;5015569;28;20040;-76
2023/10/05 10:39:47;;;;;;;5.03;2.60;;;;;;;;;;5033219;28;19971;-76
2023/10/05 10:42:18;;;;;;;3.65;2.30;;;;;;;;;;5032558;28;20025;-76
2023/10/05 10:47:22;;;;;;;3.20;1.92;;;;;;;;;;5014032;28;20038;-76
2023/10/05 10:50:22;;;;;;;4.40;2.35;;;;;;;;;;5012907;28;20022;-76
2023/10/05 10:52:50;;;;;;;5.35;3.13;;;;;;;;;;5013164;28;20101;-75
2023/10/05 10:55:17;;;;;;;3.67;2.47;;;;;;;;;;5019094;28;20108;-75
2023/10/05 10:57:47;;;;;;;5.20;2.08;;;;;;;;;;5032452;28;20029;-75
2023/10/05 11:02:58;;;;;;;5.38;2.58;;;;;;;;;;5032920;28;20091;-76
2023/10/05 11:05:39;;;;;;;6.13;3.05;;;;;;;;;;5032192;28;20026;-75
2023/10/05 11:08:08;;;;;;;4.55;2.60;;;;;;;;;;5035179;28;20515;-75
2023/10/05 11:10:34;;;;;;;8.18;2.67;;;;;;;;;;5033291;28;20058;-75
2023/10/05 11:13:14;;;;;;;5.60;2.67;;;;;;;;;;5032105;28;20052;-75
2023/10/05 11:15:50;;;;;;;6.05;2.20;;;;;;;;;;5017026;28;20034;-76
2023/10/05 11:18:18;;;;;;;3.63;2.15;;;;;;;;;;5014194;28;20026;-75
2023/10/05 11:20:52;;;;;;;5.07;2.42;;;;;;;;;;5014635;28;20021;-76
2023/10/05 11:23:26;;;;;;;2.75;1.90;;;;;;;;;;5012934;28;20391;-75
2023/10/05 11:26:35;;;;;;;3.72;2.40;;;;;;;;;;5026931;28;20388;-76
2023/10/05 11:28:42;;;;;;;3.55;2.22;;;;;;;;;;5024780;28;20029;-75
2023/10/05 11:31:11;;;;;;;3.75;1.67;;;;;;;;;;5035453;28;20029;-75
2023/10/05 11:33:41;;;;;;;2.47;1.85;;;;;;;;;;5017673;28;20049;-76
2023/10/05 11:36:21;;;;;;;3.53;1.85;;;;;;;;;;5032967;28;20057;-76
2023/10/05 11:38:57;;;;;;;4.40;2.25;;;;;;;;;;5032749;28;20360;-76
2023/10/05 11:41:28;;;;;;;5.40;2.97;;;;;;;;;;5032980;28;20104;-76
2023/10/05 11:43:55;;;;;;;4.03;2.28;;;;;;;;;;5032461;28;20025;-75
2023/10/05 11:46:24;;;;;;;3.08;2.17;;;;;;;;;;5032425;28;20048;-75
2023/10/05 11:48:56;;;;;;;2.20;1.75;;;;;;;;;;5033181;28;20026;-76
2023/10/05 11:51:27;;;;;;;3.50;2.20;;;;;;;;;;5032536;28;20028;-76
2023/10/05 11:53:55;;;;;;;2.92;2.30;;;;;;;;;;5015026;28;20431;-75
2023/10/05 11:56:30;;;;;;;3.60;2.28;;;;;;;;;;5023883;28;20061;-75
2023/10/05 11:59:02;;;;;;;2.60;1.92;;;;;;;;;;5016016;28;20030;-76
2023/10/05 12:01:28;;;;;;;4.50;2.35;;;;;;;;;;5016341;28;20053;-75
2023/10/05 12:03:55;;;;;;;5.50;3.10;;;;;;;;;;5015955;28;20026;-75
2023/10/05 12:06:28;;;;;;;3.97;2.67;;;;;;;;;;5016165;28;20061;-75
2023/10/05 12:09:00;;;;;;;4.53;2.40;;;;;;;;;;4999170;28;20460;-75
2023/10/05 12:11:26;;;;;;;3.17;2.17;;;;;;;;;;5016365;28;20076;-76
2023/10/05 12:13:56;;;;;;;6.13;3.22;;;;;;;;;;5016714;28;20042;-76
2023/10/05 12:16:38;;;;;;;4.38;2.92;;;;;;;;;;5017531;28;20492;-76
2023/10/05 12:19:13;;;;;;;5.95;2.60;;;;;;;;;;5028003;28;20032;-75
2023/10/05 12:21:45;;;;;;;5.00;2.88;;;;;;;;;;5037774;28;20038;-76
2023/10/05 12:24:12;;;;;;;4.93;3.00;;;;;;;;;;5046836;28;20025;-76
2023/10/05 12:26:42;;;;;;;5.15;3.00;;;;;;;;;;5045266;28;20030;-76
2023/10/05 12:29:12;;;;;;;5.55;3.15;;;;;;;;;;5027732;28;20033;-75
2023/10/05 12:31:41;;;;;;;5.63;2.53;;;;;;;;;;5029636;28;20033;-75
2023/10/05 12:34:09;;;;;;;6.53;2.65;;;;;;;;;;5033991;28;20014;-76
2023/10/05 12:36:35;;;;;;;4.50;2.70;;;;;;;;;;5034879;28;20025;-76
2023/10/05 12:39:01;;;;;;;4.43;2.70;;;;;;;;;;5015605;28;20040;-76
2023/10/05 12:41:40;;;;;;;3.08;2.60;;;;;;;;;;5014804;28;20068;-76
2023/10/05 12:44:09;;;;;;;5.35;2.97;;;;;;;;;;5015940;28;20026;-75
2023/10/05 12:46:42;;;;;;;7.88;3.55;;;;;;;;;;5015520;28;20037;-76
2023/10/05 12:49:08;;;;;;;5.28;2.47;;;;;;;;;;5034108;28;20387;-76
2023/10/05 12:51:37;;;;;;;3.75;2.40;;;;;;;;;;5036140;28;20022;-75
2023/10/05 12:54:08;;;;;;;6.07;3.05;;;;;;;;;;5035794;28;20025;-75
2023/10/05 12:56:35;;;;;;;4.15;2.63;;;;;;;;;;5035398;28;20034;-77
2023/10/05 12:59:03;;;;;;;3.13;2.10;;;;;;;;;;5017668;28;20399;-75
2023/10/05 13:01:29;;;;;;;4.25;2.28;;;;;;;;;;5035238;28;20032;-75
2023/10/05 13:03:56;;;;;;;7.55;2.38;;;;;;;;;;5035226;28;20527;-75
2023/10/05 13:06:24;;;;;;;4.38;2.20;;;;;;;;;;5035435;28;20434;-75
2023/10/05 13:08:50;;;;;;;8.07;3.20;;;;;;;;;;5035614;28;20022;-75
2023/10/05 13:11:18;;;;;;;7.47;3.65;;;;;;;;;;5018149;28;20022;-76
2023/10/05 13:13:44;;;;;;;6.93;3.47;;;;;;;;;;5017341;28;20172;-76
2023/10/05 13:16:21;;;;;;;7.50;3.47;;;;;;;;;;5017231;28;20026;-75
2023/10/05 13:18:49;;;;;;;6.43;3.00;;;;;;;;;;5024199;28;20083;-75
2023/10/05 13:21:15;;;;;;;9.05;3.70;;;;;;;;;;5019032;28;20495;-76
2023/10/05 13:23:42;;;;;;;5.97;3.42;;;;;;;;;;5035554;28;20053;-76
2023/10/05 13:26:08;;;;;;;5.68;2.83;;;;;;;;;;5035796;28;20498;-76
2023/10/05 13:28:34;;;;;;;7.03;3.90;;;;;;;;;;5015530;28;20397;-76
2023/10/05 13:31:06;;;;;;;7.32;3.45;;;;;;;;;;5035545;28;20096;-75
2023/10/05 13:33:34;;;;;;;4.95;2.90;;;;;;;;;;5035976;28;20152;-76
2023/10/05 13:36:12;;;;;;;4.38;2.42;;;;;;;;;;5021249;28;20030;-75
2023/10/05 13:38:38;;;;;;;4.80;2.67;;;;;;;;;;5034778;28;20021;-75
2023/10/05 13:43:30;;;;;;;5.90;3.40;;;;;;;;;;5014169;28;20112;-76
2023/10/05 13:45:59;;;;;;;3.85;2.75;;;;;;;;;;5014694;28;20025;-75
2023/10/05 13:48:29;;;;;;;5.95;3.28;;;;;;;;;;5014183;28;20072;-75
2023/10/05 13:50:56;;;;;;;5.05;3.10;;;;;;;;;;5030899;28;20087;-75
2023/10/05 13:53:23;;;;;;;8.82;3.47;;;;;;;;;;5015775;28;20535;-75
2023/10/05 13:55:51;;;;;;;4.57;2.88;;;;;;;;;;5033803;28;20063;-75
2023/10/05 13:58:19;;;;;;;7.45;3.38;;;;;;;;;;5033792;28;20025;-75
2023/10/05 14:00:47;;;;;;;6.80;3.55;;;;;;;;;;5020924;28;20030;-75
2023/10/05 14:03:14;;;;;;;7.78;2.95;;;;;;;;;;5030369;28;20030;-74
2023/10/05 14:05:40;;;;;;;7.53;3.63;;;;;;;;;;5034133;28;20071;-75
2023/10/05 14:08:12;;;;;;;10.55;3.30;;;;;;;;;;5033700;28;20029;-74
2023/10/05 14:10:39;;;;;;;4.47;2.80;;;;;;;;;;5024317;28;20410;-75
2023/10/05 14:13:09;;;;;;;6.78;3.22;;;;;;;;;;5013759;28;20041;-75
2023/10/05 14:15:35;;;;;;;4.95;2.67;;;;;;;;;;5014206;28;20018;-76
2023/10/05 14:18:06;;;;;;;5.45;3.13;;;;;;;;;;4996683;28;20030;-76
2023/10/05 14:20:33;;;;;;;5.20;2.70;;;;;;;;;;4996939;28;20034;-74
2023/10/05 14:23:01;;;;;;;6.15;3.00;;;;;;;;;;5012847;28;20030;-75
2023/10/05 14:25:27;;;;;;;4.07;2.65;;;;;;;;;;5013355;28;20121;-76
2023/10/05 14:27:53;;;;;;;6.22;2.97;;;;;;;;;;5014641;28;20034;-77
2023/10/05 14:30:21;;;;;;;6.63;3.33;;;;;;;;;;5015046;28;20069;-76
2023/10/05 14:32:50;;;;;;;4.55;2.60;;;;;;;;;;5036258;28;20030;-74
2023/10/05 14:35:18;;;;;;;5.00;2.95;;;;;;;;;;5042833;28;20152;-75
2023/10/05 14:37:52;;;;;;;4.97;2.78;;;;;;;;;;5044030;28;20101;-75
2023/10/05 14:40:26;;;;;;;5.07;2.97;;;;;;;;;;5029323;28;20075;-75
2023/10/05 14:42:53;;;;;;;3.85;2.17;;;;;;;;;;5023799;28;20052;-75
2023/10/05 14:45:26;;;;;;;3.50;2.40;;;;;;;;;;5022047;28;20041;-75
2023/10/05 14:47:52;;;;;;;3.05;2.25;;;;;;;;;;5020330;28;20060;-76
2023/10/05 14:50:19;;;;;;;4.88;2.33;;;;;;;;;;5015322;28;20026;-76
2023/10/05 14:52:51;;;;;;;4.93;2.70;;;;;;;;;;5029968;28;20105;-76
2023/10/05 14:55:17;;;;;;;;;;;;;;;;;;5016223;28;20060;-76
2023/10/05 14:57:44;;;;;;;6.40;2.63;;;;;;;;;;5034359;28;20026;-75
2023/10/05 15:00:11;;;;;;;5.65;3.00;;;;;;;;;;5034639;28;20079;-74
2023/10/05 15:02:40;;;;;;;5.70;2.25;;;;;;;;;;5032937;28;20022;-75
2023/10/05 15:05:10;;;;;;;4.63;2.40;;;;;;;;;;5033297;28;20021;-75
2023/10/05 15:07:36;;;;;;;5.55;2.65;;;;;;;;;;5033510;28;20434;-75
2023/10/05 15:10:03;;;;;;;4.70;2.70;;;;;;;;;;5033093;28;20128;-75
2023/10/05 15:12:29;;;;;;;2.65;1.83;;;;;;;;;;5025884;28;20451;-75
2023/10/05 15:14:55;;;;;;;4.03;1.95;;;;;;;;;;5013215;28;20026;-75
2023/10/05 15:17:22;;;;;;;2.55;1.85;;;;;;;;;;5013563;28;20030;-75
2023/10/05 15:19:48;;;;;;;4.43;2.13;;;;;;;;;;4995635;28;20029;-76
2023/10/05 15:22:14;;;;;;;4.00;2.67;;;;;;;;;;5015299;28;20416;-76
2023/10/05 15:24:42;;;;;;;2.13;1.50;;;;;;;;;;5033878;28;20033;-76
2023/10/05 15:27:08;;;;;;;3.83;1.77;;;;;;;;;;5033314;28;20028;-76